Cavalier, ND (58220)

6:05 AM CST on December 26, 2014 (GMT -0600)
Cavalier | Change Station
CLOSE
Current Station
Airport
Location: Cavalier,
Elevation: 892 ft
Nearby Weather Stations

Elev 892 ft 48.78 °N, 97.63 °W | Updated 30 minutes ago

Overcast
Overcast
23 °F
Feels Like 15 °F
N
7
Wind Variable Wind from NW

Today
High -- | Low -- °F
--% Chance of Precip.
Yesterday
High -- | Low -- °F
Precip. -- in
8:23 AM 4:39 PM
Waxing Crescent, 25% visible
Pressure 30.10 in
Visibility 10.0 miles
Clouds Overcast 2800 ft
Windchill 15 °F
Dew Point 19 °F
Humidity 86%
Rainfall 0.06 in
Snow Depth Not available.
UV 0 out of 12
Pollen .10 out of 12
Air Quality Not available.
Flu Activity Not available.
METAR K2C8 261135Z AUTO 31006KT 10SM OVC028 M05/M07 A3010 RMK AO2 P0003

More Conditions Fewer Conditions

Pressure 30.10 in
Visibility 10.0 miles
Clouds Overcast 2800 ft
Windchill 15 °F
Dew Point 19 °F
Humidity 86%
Rainfall 0.06 in
Snow Depth Not available.
UV 0 out of 12
Pollen .10 out of 12
Air Quality Not available.
Flu Activity Not available.
METAR K2C8 261135Z AUTO 31006KT 10SM OVC028 M05/M07 A3010 RMK AO2 P0003

More Conditions Fewer Conditions

10-Day Weather Forecast

Almanac

Astronomy

Dec. 26, 2014 Rise Set
Actual Time
Civil Twilight
Nautical Twilight
Astronomical Twilight
Moon
Length of Visible Light
Length of Day
Tomorrow will be .
, % of the Moon is Illuminated

Today's Extremes

State Highs State Lows

Community

WunderPhotos

Upload Photos

1,780,581 photos uploaded!

WunderBlogs® & News

Nearby

Air Quality

  Air Quality AQ Index Pollutant
Not available.

Snow Depth

Station Depth Elevation

Earthquake Activity

City Distance Mag. Time & Date
Minimum magnitude displayed is 2.5.

Coastal Water Temperatures

Place Temperature

Nearby Weather Stations